createdAt,value
2022-08-09T00:02:51.641Z,100.00
2022-08-09T00:08:31.951Z,100.00
2022-08-09T00:13:56.520Z,100.00
2022-08-09T00:19:20.299Z,100.00
2022-08-09T00:24:44.818Z,100.00
2022-08-09T00:30:25.502Z,100.00
2022-08-09T00:35:50.407Z,100.00
2022-08-09T00:44:10.586Z,100.00
2022-08-09T00:47:05.133Z,100.00
2022-08-09T00:52:31.117Z,100.00
2022-08-09T00:57:59.131Z,100.00
2022-08-09T01:03:28.352Z,100.00
2022-08-09T01:08:59.740Z,100.00
2022-08-09T01:14:30.544Z,100.00
2022-08-09T01:20:02.524Z,100.00
2022-08-09T01:25:41.459Z,100.00
2022-08-09T01:31:23.319Z,100.00
2022-08-09T01:36:57.630Z,100.00
2022-08-09T01:42:21.329Z,100.00
2022-08-09T01:47:46.242Z,100.00
2022-08-09T01:53:19.594Z,100.00
2022-08-09T01:58:43.740Z,100.00
2022-08-09T02:04:14.400Z,100.00
2022-08-09T02:09:42.401Z,100.00
2022-08-09T02:15:07.792Z,100.00
2022-08-09T02:20:34.191Z,100.00
2022-08-09T02:25:59.670Z,100.00
2022-08-09T02:31:26.025Z,100.00
2022-08-09T02:36:53.937Z,100.00
2022-08-09T02:42:24.743Z,100.00
2022-08-09T02:47:59.170Z,100.00
2022-08-09T02:53:27.585Z,100.00
2022-08-09T02:58:50.748Z,100.00
2022-08-09T03:04:19.287Z,100.00
2022-08-09T03:09:54.302Z,100.00
2022-08-09T03:15:22.835Z,100.00
2022-08-09T03:20:47.082Z,100.00
2022-08-09T03:26:11.569Z,100.00
2022-08-09T03:31:42.503Z,100.00
2022-08-09T03:37:55.548Z,100.00
2022-08-09T03:43:06.902Z,100.00
2022-08-09T03:48:31.417Z,100.00
2022-08-09T03:53:55.737Z,100.00
2022-08-09T03:59:27.187Z,100.00
2022-08-09T04:04:50.960Z,100.00
2022-08-09T04:10:14.126Z,100.00
2022-08-09T04:16:18.523Z,100.00
2022-08-09T04:21:27.902Z,100.00
2022-08-09T04:26:53.007Z,100.00
2022-08-09T04:32:31.387Z,100.00
2022-08-09T04:37:56.826Z,100.00
2022-08-09T04:43:20.254Z,100.00
2022-08-09T04:48:50.459Z,100.00
2022-08-09T04:54:21.592Z,100.00
2022-08-09T04:59:45.382Z,100.00
2022-08-09T05:05:14.735Z,100.00
2022-08-09T05:10:54.985Z,100.00
2022-08-09T05:16:18.189Z,100.00
2022-08-09T05:21:47.165Z,100.00
2022-08-09T05:27:20.757Z,100.00
2022-08-09T05:32:43.863Z,100.00
2022-08-09T05:38:08.365Z,100.00
2022-08-09T05:43:35.206Z,100.00
2022-08-09T05:48:59.551Z,100.00
2022-08-09T05:54:24.556Z,100.00
2022-08-09T05:59:47.656Z,100.00
2022-08-09T06:05:12.111Z,100.00
2022-08-09T06:10:40.439Z,100.00
2022-08-09T06:16:04.921Z,100.00
2022-08-09T06:21:28.434Z,100.00
2022-08-09T06:26:55.028Z,100.00
2022-08-09T06:32:53.093Z,100.00
2022-08-09T06:38:07.435Z,100.00
2022-08-09T06:43:34.100Z,100.00
2022-08-09T06:49:00.723Z,100.00
2022-08-09T06:54:23.799Z,100.00
2022-08-09T07:00:56.139Z,100.00
2022-08-09T07:06:02.781Z,100.00
2022-08-09T07:11:23.572Z,100.00
2022-08-09T07:16:55.362Z,100.00
2022-08-09T07:22:34.467Z,100.00
2022-08-09T07:27:58.759Z,100.00
2022-08-09T07:33:30.921Z,100.00
2022-08-09T07:39:12.062Z,100.00
2022-08-09T07:44:51.823Z,100.00
2022-08-09T07:50:18.400Z,100.00
2022-08-09T07:56:03.517Z,100.00
2022-08-09T08:01:33.968Z,100.00
2022-08-09T08:07:00.175Z,100.00
2022-08-09T08:12:33.713Z,100.00
2022-08-09T08:17:58.131Z,100.00
2022-08-09T08:23:23.260Z,100.00
2022-08-09T08:28:50.892Z,100.00
2022-08-09T08:34:14.206Z,100.00
2022-08-09T08:39:43.419Z,100.00
2022-08-09T08:45:11.691Z,100.00
2022-08-09T08:50:37.080Z,100.00
2022-08-09T08:56:02.951Z,100.00
2022-08-09T09:01:35.414Z,100.00
2022-08-09T09:07:11.017Z,100.00
2022-08-09T09:12:36.090Z,100.00
2022-08-09T09:17:59.393Z,100.00
2022-08-09T09:23:41.640Z,100.00
2022-08-09T09:29:17.103Z,100.00
2022-08-09T09:34:45.018Z,100.00
2022-08-09T09:40:09.874Z,100.00
2022-08-09T09:51:38.400Z,100.00
2022-08-09T09:58:03.291Z,100.00
2022-08-09T10:02:59.341Z,100.00
2022-08-09T10:08:27.962Z,100.00
2022-08-09T10:13:53.633Z,100.00
2022-08-09T10:19:18.357Z,100.00
2022-08-09T10:24:46.719Z,100.00
2022-08-09T10:36:01.129Z,100.00
2022-08-09T10:41:26.034Z,100.00
2022-08-09T10:48:13.401Z,100.00
2022-08-09T10:53:21.224Z,98.29
2022-08-09T10:58:49.445Z,93.86
2022-08-09T11:04:27.917Z,98.10
2022-08-09T11:09:59.772Z,97.74
2022-08-09T11:15:33.839Z,96.73
2022-08-09T11:21:01.926Z,96.57
2022-08-09T11:26:52.209Z,92.09
2022-08-09T11:32:50.676Z,94.29
2022-08-09T11:38:43.225Z,95.57
2022-08-09T11:44:49.744Z,96.48
2022-08-09T11:50:55.856Z,100.00
2022-08-09T11:56:08.402Z,100.00
2022-08-09T12:02:18.409Z,100.00
2022-08-09T12:07:20.735Z,100.00
2022-08-09T12:12:47.694Z,100.00
2022-08-09T12:18:29.775Z,100.00
2022-08-09T12:24:06.468Z,100.00
2022-08-09T12:29:52.487Z,100.00
2022-08-09T12:35:21.875Z,100.00
2022-08-09T12:40:46.741Z,100.00
2022-08-09T12:46:17.162Z,100.00
2022-08-09T12:52:01.282Z,100.00
2022-08-09T12:57:38.582Z,100.00
2022-08-09T13:03:04.995Z,100.00
2022-08-09T13:08:39.671Z,99.93
2022-08-09T13:14:41.697Z,100.00
2022-08-09T13:20:08.396Z,100.00
2022-08-09T13:25:42.332Z,100.00
2022-08-09T13:32:13.482Z,100.00
2022-08-09T13:36:52.181Z,100.00
2022-08-09T13:42:18.799Z,100.00
2022-08-09T13:47:49.221Z,100.00
2022-08-09T13:53:16.143Z,100.00
2022-08-09T13:58:41.153Z,100.00
2022-08-09T14:04:11.463Z,99.54
2022-08-09T14:09:35.660Z,94.43
2022-08-09T14:15:00.471Z,94.53
2022-08-09T14:20:29.089Z,94.00
2022-08-09T14:25:53.176Z,93.46
2022-08-09T14:31:18.375Z,98.81
2022-08-09T14:36:46.753Z,100.00
2022-08-09T14:42:12.422Z,96.48
2022-08-09T14:47:46.649Z,96.94
2022-08-09T14:53:13.773Z,96.85
2022-08-09T14:58:37.874Z,95.11
2022-08-09T15:04:09.781Z,92.83
2022-08-09T15:10:07.461Z,94.53
2022-08-09T15:15:18.551Z,92.65
2022-08-09T15:21:57.535Z,94.42
2022-08-09T15:26:31.167Z,97.06
2022-08-09T15:31:56.971Z,99.68
2022-08-09T15:37:57.252Z,97.08
2022-08-09T15:43:24.682Z,95.38
2022-08-09T15:48:58.950Z,96.14
2022-08-09T15:54:48.960Z,94.82
2022-08-09T16:00:21.890Z,95.60
2022-08-09T16:05:54.233Z,95.22
2022-08-09T16:11:21.885Z,92.35
2022-08-09T16:16:45.808Z,90.89
2022-08-09T16:22:14.787Z,91.48
2022-08-09T16:27:40.849Z,93.12
2022-08-09T16:33:10.037Z,94.40
2022-08-09T16:38:33.102Z,94.72
2022-08-09T16:43:59.547Z,95.20
2022-08-09T16:50:31.645Z,95.43
2022-08-09T16:55:15.578Z,95.27
2022-08-09T17:00:44.204Z,95.35
2022-08-09T17:06:28.798Z,94.27
2022-08-09T17:11:53.317Z,93.10
2022-08-09T17:17:26.707Z,95.25
2022-08-09T17:22:52.550Z,96.11
2022-08-09T17:28:16.809Z,97.51
2022-08-09T17:33:45.727Z,96.80
2022-08-09T17:39:25.149Z,97.43
2022-08-09T17:44:49.699Z,95.57
2022-08-09T17:50:25.042Z,95.34
2022-08-09T17:56:03.241Z,96.45
2022-08-09T18:02:03.314Z,98.37
2022-08-09T18:07:23.285Z,98.58
2022-08-09T18:13:53.574Z,100.00
2022-08-09T18:18:32.706Z,100.00
2022-08-09T18:24:09.706Z,100.00
2022-08-09T18:30:41.448Z,100.00
2022-08-09T18:35:19.382Z,100.00
2022-08-09T18:41:06.353Z,100.00
2022-08-09T18:46:51.309Z,100.00
2022-08-09T18:52:18.722Z,100.00
2022-08-09T18:57:56.319Z,100.00
2022-08-09T19:03:19.671Z,100.00
2022-08-09T19:08:42.866Z,100.00
2022-08-09T19:14:24.462Z,100.00
2022-08-09T19:19:58.692Z,100.00
2022-08-09T19:25:42.545Z,100.00
2022-08-09T19:31:09.112Z,100.00
2022-08-09T19:36:32.860Z,100.00
2022-08-09T19:41:56.703Z,100.00
2022-08-09T19:47:26.931Z,100.00
2022-08-09T19:52:52.125Z,100.00
2022-08-09T19:58:16.056Z,100.00
2022-08-09T20:04:16.995Z,100.00
2022-08-09T20:09:44.827Z,100.00
2022-08-09T20:16:36.349Z,100.00
2022-08-09T20:21:00.325Z,100.00
2022-08-09T20:26:25.331Z,100.00
2022-08-09T20:32:17.104Z,100.00
2022-08-09T20:38:18.492Z,100.00
2022-08-09T20:43:25.279Z,100.00
2022-08-09T20:48:49.636Z,100.00
2022-08-09T20:54:17.091Z,100.00
2022-08-09T21:00:20.799Z,100.00
2022-08-09T21:05:54.482Z,100.00
2022-08-09T21:16:57.340Z,100.00
2022-08-09T21:22:36.099Z,100.00
2022-08-09T21:28:04.239Z,100.00
2022-08-09T21:33:36.188Z,100.00
2022-08-09T21:39:00.096Z,100.00
2022-08-09T21:44:33.371Z,100.00
2022-08-09T21:49:57.993Z,100.00
2022-08-09T21:55:23.101Z,100.00
2022-08-09T22:00:48.713Z,100.00
2022-08-09T22:06:15.565Z,100.00
2022-08-09T22:12:09.478Z,100.00
2022-08-09T22:17:23.592Z,100.00
2022-08-09T22:22:48.466Z,100.00
2022-08-09T22:28:11.769Z,100.00
2022-08-09T22:39:57.135Z,100.00
2022-08-09T22:48:16.426Z,100.00
2022-08-09T22:50:52.763Z,100.00
2022-08-09T22:56:33.399Z,100.00
2022-08-09T23:01:57.992Z,100.00
2022-08-09T23:08:27.631Z,100.00
2022-08-09T23:13:23.937Z,100.00
2022-08-09T23:18:47.172Z,100.00
2022-08-09T23:24:11.748Z,100.00
2022-08-09T23:29:34.879Z,100.00
2022-08-09T23:34:57.971Z,100.00
2022-08-09T23:40:22.804Z,100.00
2022-08-09T23:45:45.887Z,100.00
2022-08-09T23:51:09.212Z,100.00
2022-08-09T23:56:53.147Z,100.00
